Time;durP1;ratioP1;P1;durP2;ratioP2;P2;SDS_P1;SDS_P2;PMS_P1;PMS_P2;Temp;Humidity;BMP_temperature;BMP_pressure;BME280_temperature;BME280_humidity;BME280_pressure;Samples;Min_cycle;Max_cycle;Signal;HPM_P1;HPM_P2
2022/05/18 00:01:51;;;;;;;0.40;0.40;;;20.90;51.80;;;;;;5002912;28;20042;-36
2022/05/18 00:04:17;;;;;;;0.52;0.52;;;20.90;51.80;;;;;;5002346;28;20030;-41
2022/05/18 00:06:43;;;;;;;0.77;0.50;;;20.90;51.70;;;;;;5000177;28;20089;-37
2022/05/18 00:09:09;;;;;;;0.65;0.60;;;20.90;51.70;;;;;;5001931;28;20088;-38
2022/05/18 00:11:35;;;;;;;0.88;0.70;;;20.80;51.60;;;;;;5003427;28;20077;-37
2022/05/18 00:14:01;;;;;;;0.60;0.60;;;20.90;51.60;;;;;;5003592;28;20038;-37
2022/05/18 00:16:28;;;;;;;1.85;0.52;;;20.80;51.60;;;;;;5001934;28;20030;-37
2022/05/18 00:18:54;;;;;;;0.68;0.60;;;20.80;51.50;;;;;;4998869;28;20125;-37
2022/05/18 00:21:20;;;;;;;0.50;0.50;;;20.90;51.50;;;;;;5000622;28;20034;-37
2022/05/18 00:23:46;;;;;;;0.50;0.50;;;20.80;51.40;;;;;;5004316;28;20585;-37
2022/05/18 00:26:12;;;;;;;0.50;0.50;;;20.80;51.40;;;;;;5025870;28;20036;-37
2022/05/18 00:28:39;;;;;;;0.60;0.60;;;20.90;51.40;;;;;;5103101;28;20036;-38
2022/05/18 00:31:05;;;;;;;0.73;0.50;;;20.90;51.30;;;;;;5107483;28;20039;-38
2022/05/18 00:33:31;;;;;;;0.60;0.60;;;20.90;51.30;;;;;;5102514;28;20028;-38
2022/05/18 00:35:57;;;;;;;0.70;0.70;;;20.90;51.30;;;;;;5103445;28;20031;-37
2022/05/18 00:38:24;;;;;;;0.77;0.60;;;20.90;51.30;;;;;;5092976;28;20047;-37
2022/05/18 00:40:50;;;;;;;1.63;0.50;;;20.90;51.30;;;;;;5099347;28;20038;-37
2022/05/18 00:43:31;;;;;;;0.50;0.50;;;20.90;51.20;;;;;;5095966;28;20028;-37
2022/05/18 00:46:03;;;;;;;1.17;0.60;;;20.90;51.20;;;;;;5100146;28;20051;-37
2022/05/18 00:48:29;;;;;;;0.50;0.40;;;20.90;51.20;;;;;;5088461;28;20025;-38
2022/05/18 00:50:55;;;;;;;0.43;0.40;;;20.90;51.10;;;;;;5097721;28;20121;-37
2022/05/18 00:53:34;;;;;;;0.45;0.45;;;20.90;51.10;;;;;;5079029;28;20059;-37
2022/05/18 00:56:06;;;;;;;0.47;0.47;;;20.90;51.10;;;;;;5090870;28;20040;-37
2022/05/18 00:58:43;;;;;;;0.50;0.50;;;20.90;51.10;;;;;;5069706;28;20737;-36
2022/05/18 01:01:09;;;;;;;0.68;0.50;;;20.90;51.10;;;;;;5090577;28;20039;-38
2022/05/18 01:03:59;;;;;;;0.70;0.65;;;20.90;51.10;;;;;;5075487;28;20085;-37
2022/05/18 01:06:29;;;;;;;0.50;0.50;;;20.90;51.10;;;;;;5087303;28;20096;-37
2022/05/18 01:09:15;;;;;;;0.73;0.50;;;20.90;51.00;;;;;;5071559;28;20059;-37
2022/05/18 01:11:41;;;;;;;1.00;0.50;;;21.00;51.10;;;;;;5088447;28;20032;-38
2022/05/18 01:14:29;;;;;;;0.50;0.47;;;21.00;51.00;;;;;;5090654;28;20024;-38
2022/05/18 01:16:55;;;;;;;0.68;0.50;;;21.00;51.00;;;;;;5097185;28;20059;-37
2022/05/18 01:19:44;;;;;;;0.70;0.60;;;21.00;51.00;;;;;;5090565;28;20480;-37
2022/05/18 01:22:29;;;;;;;;;;;21.00;51.00;;;;;;5095996;28;20059;-37
2022/05/18 01:25:24;;;;;;;1.50;0.60;;;21.00;51.50;;;;;;5090905;28;19912;-38
2022/05/18 01:27:51;;;;;;;1.92;0.50;;;21.00;51.00;;;;;;5090480;28;20020;-37
2022/05/18 01:30:17;;;;;;;0.50;0.50;;;21.00;51.00;;;;;;5076927;28;20044;-37
2022/05/18 01:32:46;;;;;;;0.50;0.50;;;21.00;51.00;;;;;;5095427;28;20036;-36
2022/05/18 01:35:14;;;;;;;1.08;0.60;;;21.00;51.00;;;;;;5097532;28;20074;-38
2022/05/18 01:37:40;;;;;;;0.70;0.60;;;21.00;51.00;;;;;;5087121;28;20036;-37
2022/05/18 01:40:14;;;;;;;0.60;0.57;;;21.00;51.10;;;;;;5095892;28;20033;-37
2022/05/18 01:42:46;;;;;;;0.90;0.70;;;21.00;51.10;;;;;;5097761;28;20121;-37
2022/05/18 01:45:13;;;;;;;0.60;0.40;;;21.00;51.20;;;;;;5097451;28;20024;-37
2022/05/18 01:47:40;;;;;;;0.90;0.50;;;21.00;51.20;;;;;;5094542;28;20039;-37
2022/05/18 01:50:14;;;;;;;0.70;0.60;;;21.10;51.30;;;;;;5092680;28;20048;-37
2022/05/18 01:52:41;;;;;;;1.98;0.70;;;21.10;51.30;;;;;;5071564;28;20024;-38
2022/05/18 01:55:07;;;;;;;0.80;0.60;;;21.10;51.40;;;;;;5090471;28;20136;-37
2022/05/18 01:57:34;;;;;;;0.70;0.50;;;21.10;51.40;;;;;;5095945;28;20034;-37
2022/05/18 02:00:00;;;;;;;1.33;0.60;;;21.10;51.40;;;;;;5096147;28;20036;-37
2022/05/18 02:02:26;;;;;;;0.60;0.60;;;21.10;51.40;;;;;;5091636;28;20739;-37
2022/05/18 02:04:52;;;;;;;1.10;0.70;;;21.10;51.60;;;;;;5097153;28;20091;-37
2022/05/18 02:07:18;;;;;;;0.90;0.57;;;21.10;51.80;;;;;;5101899;28;20031;-37
2022/05/18 02:09:44;;;;;;;2.10;0.70;;;21.10;51.80;;;;;;5091496;28;20647;-37
2022/05/18 02:12:11;;;;;;;2.03;0.60;;;21.10;51.90;;;;;;5089260;28;20096;-41
2022/05/18 02:14:37;;;;;;;0.80;0.80;;;21.10;51.90;;;;;;5088477;28;20039;-40
2022/05/18 02:17:04;;;;;;;3.03;0.82;;;21.10;51.70;;;;;;5095181;28;20039;-40
2022/05/18 02:19:30;;;;;;;1.48;0.60;;;21.10;52.00;;;;;;5101739;28;20043;-41
2022/05/18 02:21:56;;;;;;;3.08;0.90;;;21.10;52.20;;;;;;5092762;28;20024;-39
2022/05/18 02:24:22;;;;;;;7.97;0.90;;;21.10;52.50;;;;;;5101954;28;20039;-39
2022/05/18 02:26:48;;;;;;;6.03;1.10;;;21.20;53.10;;;;;;5085663;28;20088;-39
2022/05/18 02:29:14;;;;;;;7.68;1.33;;;21.20;53.00;;;;;;5109546;28;20039;-40
2022/05/18 02:31:40;;;;;;;7.28;1.38;;;21.20;53.00;;;;;;5092196;28;20028;-39
2022/05/18 02:34:06;;;;;;;10.30;1.58;;;21.20;53.20;;;;;;5101152;28;20032;-39
2022/05/18 02:36:34;;;;;;;8.32;1.70;;;21.20;53.70;;;;;;5101714;28;20063;-39
2022/05/18 02:38:59;;;;;;;;;;;21.20;53.90;;;;;;5095733;28;20031;-41
2022/05/18 02:41:26;;;;;;;9.02;1.75;;;21.20;54.20;;;;;;5076052;28;19975;-40
2022/05/18 02:43:52;;;;;;;15.52;1.90;;;21.30;54.80;;;;;;5092480;28;20046;-37
2022/05/18 02:46:19;;;;;;;17.25;2.20;;;21.30;55.20;;;;;;5094863;28;20024;-38
2022/05/18 02:48:46;;;;;;;9.65;1.90;;;21.30;55.10;;;;;;5079551;28;20784;-39
2022/05/18 02:51:13;;;;;;;6.72;1.60;;;21.30;55.00;;;;;;5093109;28;20044;-38
2022/05/18 02:53:39;;;;;;;9.15;2.00;;;21.30;54.80;;;;;;5088944;28;20507;-38
2022/05/18 02:56:06;;;;;;;13.60;2.20;;;21.30;55.20;;;;;;5096537;28;20055;-36
2022/05/18 02:58:39;;;;;;;;;;;21.30;55.10;;;;;;5094313;28;20060;-39
2022/05/18 03:01:07;;;;;;;12.25;1.83;;;21.30;55.00;;;;;;5094906;28;19962;-38
2022/05/18 03:03:34;;;;;;;6.28;2.15;;;21.30;55.20;;;;;;5096880;28;20621;-41
2022/05/18 03:06:03;;;;;;;10.35;2.30;;;21.40;55.30;;;;;;5093823;28;20031;-38
2022/05/18 03:08:32;;;;;;;14.02;2.33;;;21.40;55.30;;;;;;5091435;28;20031;-40
2022/05/18 03:10:58;;;;;;;8.73;2.30;;;21.40;55.30;;;;;;5097597;28;20036;-51
2022/05/18 03:13:25;;;;;;;15.52;2.85;;;21.40;56.20;;;;;;5096130;28;20023;-52
2022/05/18 03:15:51;;;;;;;14.63;2.80;;;21.40;55.90;;;;;;5095793;28;20024;-48
2022/05/18 03:18:17;;;;;;;12.88;3.13;;;21.40;56.00;;;;;;5101203;28;20123;-50
2022/05/18 03:23:34;;;;;;;11.88;2.63;;;21.50;56.10;;;;;;5091001;28;20039;-47
2022/05/18 03:26:11;;;;;;;10.88;2.50;;;21.50;56.10;;;;;;5098022;28;20501;-48
2022/05/18 03:28:38;;;;;;;15.97;3.13;;;21.50;56.10;;;;;;5091049;28;21182;-48
2022/05/18 03:31:05;;;;;;;7.75;2.50;;;21.50;56.10;;;;;;5054461;28;20300;-46
2022/05/18 03:33:31;;;;;;;8.85;2.53;;;21.50;56.00;;;;;;5055771;28;20055;-49
2022/05/18 03:35:57;;;;;;;10.43;2.60;;;21.60;56.00;;;;;;5054493;28;20033;-47
2022/05/18 03:38:23;;;;;;;8.63;2.40;;;21.60;56.00;;;;;;5058291;28;20092;-48
2022/05/18 03:40:50;;;;;;;9.77;2.33;;;21.60;56.00;;;;;;5056722;28;20037;-49
2022/05/18 03:43:19;;;;;;;6.65;2.33;;;21.60;56.00;;;;;;5055041;28;20037;-49
2022/05/18 03:45:45;;;;;;;7.97;2.20;;;21.60;56.00;;;;;;5050030;28;20174;-47
2022/05/18 03:48:12;;;;;;;6.97;2.53;;;21.60;55.90;;;;;;5049711;28;20025;-47
2022/05/18 03:50:40;;;;;;;6.15;2.20;;;21.60;55.90;;;;;;5056293;28;20038;-48
2022/05/18 03:53:06;;;;;;;7.10;2.45;;;21.60;55.80;;;;;;5057507;28;20041;-47
2022/05/18 03:55:33;;;;;;;6.45;2.30;;;21.60;55.80;;;;;;5051046;28;20036;-49
2022/05/18 03:57:59;;;;;;;6.57;2.17;;;21.60;55.70;;;;;;5054165;28;20254;-47
2022/05/18 04:00:25;;;;;;;8.30;2.40;;;21.70;55.80;;;;;;5052357;28;20029;-49
2022/05/18 04:02:51;;;;;;;6.85;2.47;;;21.70;55.80;;;;;;5047794;28;20035;-47
2022/05/18 04:05:20;;;;;;;4.68;2.10;;;21.70;55.80;;;;;;5048746;28;20034;-48
2022/05/18 04:07:49;;;;;;;6.18;2.08;;;21.70;55.80;;;;;;5050687;28;20021;-48
2022/05/18 04:10:15;;;;;;;3.35;1.95;;;21.70;55.70;;;;;;5048260;28;20127;-47
2022/05/18 04:12:42;;;;;;;5.23;2.20;;;21.70;55.70;;;;;;5055131;28;20071;-49
2022/05/18 04:15:10;;;;;;;4.15;1.98;;;21.70;55.60;;;;;;5055070;28;20025;-47
2022/05/18 04:17:36;;;;;;;3.20;1.90;;;21.70;55.60;;;;;;5054190;28;20044;-50
2022/05/18 04:20:05;;;;;;;3.05;1.90;;;21.70;55.70;;;;;;5049987;28;20048;-49
2022/05/18 04:22:32;;;;;;;3.53;1.83;;;21.70;55.60;;;;;;5053694;28;20037;-48
2022/05/18 04:25:01;;;;;;;5.75;2.15;;;21.70;55.60;;;;;;5055454;28;20041;-48
2022/05/18 04:27:28;;;;;;;3.53;1.92;;;21.70;55.60;;;;;;5054765;28;20068;-47
2022/05/18 04:29:55;;;;;;;3.90;2.00;;;21.70;55.60;;;;;;5087798;28;20063;-49
2022/05/18 04:32:21;;;;;;;4.13;2.05;;;21.70;55.60;;;;;;5097561;28;20054;-48
2022/05/18 04:34:48;;;;;;;4.60;2.03;;;21.70;55.60;;;;;;5088083;28;20114;-52
2022/05/18 04:37:17;;;;;;;5.70;2.15;;;21.70;55.60;;;;;;5101125;28;20024;-48
2022/05/18 04:39:44;;;;;;;4.10;1.80;;;21.70;55.60;;;;;;5091518;28;20031;-46
2022/05/18 04:42:10;;;;;;;3.05;1.90;;;21.70;55.60;;;;;;5095746;28;20049;-48
2022/05/18 04:44:36;;;;;;;2.97;1.80;;;21.80;55.60;;;;;;5093067;28;20091;-51
2022/05/18 04:47:03;;;;;;;3.25;1.77;;;21.70;55.60;;;;;;5100186;28;20038;-47
2022/05/18 04:49:29;;;;;;;2.45;1.50;;;21.70;55.50;;;;;;5094218;28;20216;-47
2022/05/18 04:51:55;;;;;;;4.15;2.20;;;21.80;55.60;;;;;;5094442;28;20035;-50
2022/05/18 04:54:21;;;;;;;4.35;1.98;;;21.70;55.50;;;;;;5098497;28;20032;-46
2022/05/18 04:56:48;;;;;;;3.58;2.17;;;21.70;55.50;;;;;;5100650;28;20039;-50
2022/05/18 04:59:14;;;;;;;3.38;2.33;;;21.70;55.50;;;;;;5093829;28;20063;-48
2022/05/18 05:01:41;;;;;;;3.22;2.00;;;21.70;55.60;;;;;;5093796;28;20587;-48
2022/05/18 05:04:09;;;;;;;4.28;1.90;;;21.70;55.50;;;;;;5092404;28;20034;-49
2022/05/18 05:06:39;;;;;;;3.42;2.03;;;21.80;55.50;;;;;;5094918;28;20058;-46
2022/05/18 05:09:05;;;;;;;4.63;2.10;;;21.70;55.50;;;;;;5094582;28;20088;-46
2022/05/18 05:11:31;;;;;;;3.28;1.90;;;21.80;55.50;;;;;;5089189;28;20708;-47
2022/05/18 05:13:57;;;;;;;3.85;1.98;;;21.70;55.50;;;;;;5097109;28;20035;-50
2022/05/18 05:16:26;;;;;;;2.88;2.10;;;21.70;55.50;;;;;;5088471;28;20036;-46
2022/05/18 05:18:52;;;;;;;2.83;2.00;;;21.80;55.50;;;;;;5091392;28;20463;-47
2022/05/18 05:21:18;;;;;;;3.30;2.20;;;21.70;55.40;;;;;;5093216;28;20028;-46
2022/05/18 05:23:46;;;;;;;2.47;1.95;;;21.70;55.40;;;;;;5091664;28;20033;-46
2022/05/18 05:26:13;;;;;;;2.65;2.13;;;21.70;55.50;;;;;;5092351;28;20555;-47
2022/05/18 05:28:39;;;;;;;3.33;2.13;;;21.70;55.40;;;;;;5094706;28;20028;-47
2022/05/18 05:31:06;;;;;;;3.47;2.00;;;21.70;55.50;;;;;;5092306;28;20036;-47
2022/05/18 05:33:32;;;;;;;3.67;2.20;;;21.70;55.40;;;;;;5091385;28;20170;-46
2022/05/18 05:35:59;;;;;;;3.40;2.08;;;21.70;55.40;;;;;;5091626;28;20120;-47
2022/05/18 05:38:25;;;;;;;2.80;2.10;;;21.70;55.40;;;;;;5090360;28;21442;-49
2022/05/18 05:40:51;;;;;;;2.65;2.20;;;21.70;55.40;;;;;;5093969;28;20053;-46
2022/05/18 05:43:17;;;;;;;3.38;2.30;;;21.70;55.50;;;;;;5091125;28;20591;-47
2022/05/18 05:45:44;;;;;;;4.13;2.28;;;21.70;55.50;;;;;;5087338;28;20082;-47
2022/05/18 05:48:10;;;;;;;3.53;2.33;;;21.70;55.50;;;;;;5076368;28;20021;-47
2022/05/18 05:50:36;;;;;;;2.78;2.20;;;21.70;55.50;;;;;;5090169;28;20048;-46
2022/05/18 05:53:02;;;;;;;3.22;2.55;;;21.70;55.50;;;;;;5089939;28;20020;-47
2022/05/18 05:55:28;;;;;;;2.60;2.35;;;21.70;55.40;;;;;;5088948;28;20028;-48
2022/05/18 05:57:55;;;;;;;4.13;2.33;;;21.70;55.60;;;;;;5087907;28;20028;-47
2022/05/18 06:00:22;;;;;;;3.50;2.33;;;21.70;55.40;;;;;;5091880;28;20031;-47
2022/05/18 06:02:50;;;;;;;;;;;21.70;55.50;;;;;;5099442;28;20039;-46
2022/05/18 06:05:17;;;;;;;3.22;2.13;;;21.70;55.50;;;;;;5090325;28;20472;-49
2022/05/18 06:07:43;;;;;;;2.70;2.22;;;21.70;55.50;;;;;;5091373;28;20107;-47
2022/05/18 06:10:10;;;;;;;3.53;2.33;;;21.70;55.50;;;;;;5089398;28;20135;-46
2022/05/18 06:12:37;;;;;;;2.90;2.20;;;21.70;55.50;;;;;;5090584;28;20032;-46
2022/05/18 06:15:04;;;;;;;2.72;2.00;;;21.70;55.50;;;;;;5092700;28;20039;-46
2022/05/18 06:17:30;;;;;;;2.85;2.60;;;21.70;55.50;;;;;;5096541;28;20051;-47
2022/05/18 06:19:56;;;;;;;2.53;2.20;;;21.70;55.60;;;;;;5090727;28;20036;-45
2022/05/18 06:22:22;;;;;;;3.20;2.47;;;21.70;56.10;;;;;;5088945;28;20024;-45
2022/05/18 06:24:51;;;;;;;3.00;2.40;;;21.70;55.60;;;;;;5086965;28;20021;-46
2022/05/18 06:27:18;;;;;;;2.38;2.17;;;21.70;55.60;;;;;;5084865;28;20040;-46
2022/05/18 06:29:45;;;;;;;2.63;2.05;;;21.70;55.60;;;;;;5091753;28;20142;-45
2022/05/18 06:32:11;;;;;;;2.70;2.50;;;21.70;55.60;;;;;;5095693;28;20054;-46
2022/05/18 06:34:37;;;;;;;2.90;2.58;;;21.70;55.60;;;;;;5099147;28;20054;-47
2022/05/18 06:37:04;;;;;;;2.50;2.30;;;21.70;55.70;;;;;;5090287;28;20039;-48
2022/05/18 06:39:30;;;;;;;2.70;2.50;;;21.70;55.60;;;;;;5095353;28;20565;-49
2022/05/18 06:41:57;;;;;;;2.78;2.58;;;21.70;55.70;;;;;;5096661;28;20077;-47
2022/05/18 06:44:24;;;;;;;3.33;2.13;;;21.70;55.70;;;;;;5089984;28;20035;-46
2022/05/18 06:46:50;;;;;;;3.42;2.90;;;21.60;55.60;;;;;;5092556;28;20028;-47
2022/05/18 06:49:16;;;;;;;3.00;2.70;;;21.70;55.70;;;;;;5096525;28;20059;-50
2022/05/18 06:51:43;;;;;;;3.97;2.53;;;21.60;55.70;;;;;;5095138;28;20519;-48
2022/05/18 06:54:09;;;;;;;2.90;2.53;;;21.60;55.70;;;;;;5089656;28;20028;-46
2022/05/18 06:56:37;;;;;;;4.10;2.90;;;21.60;55.70;;;;;;5092800;28;20037;-46
2022/05/18 06:59:04;;;;;;;3.25;2.95;;;21.60;55.70;;;;;;5095954;28;20036;-45
2022/05/18 07:01:30;;;;;;;3.20;2.88;;;21.60;55.70;;;;;;5091626;28;20029;-47
2022/05/18 07:03:56;;;;;;;3.00;2.70;;;21.60;55.70;;;;;;5089839;28;20028;-45
2022/05/18 07:06:24;;;;;;;3.17;2.80;;;21.60;55.70;;;;;;5093855;28;20035;-45
2022/05/18 07:08:51;;;;;;;3.17;2.80;;;21.60;55.80;;;;;;5096864;28;20032;-46
2022/05/18 07:11:21;;;;;;;3.20;2.92;;;21.60;55.80;;;;;;5092519;28;20063;-47
2022/05/18 07:13:51;;;;;;;3.58;3.13;;;21.60;55.80;;;;;;5098510;28;20858;-47
2022/05/18 07:16:18;;;;;;;4.38;3.13;;;21.60;55.90;;;;;;5094363;28;20039;-46
2022/05/18 07:18:45;;;;;;;;;;;21.60;55.90;;;;;;5094424;28;20050;-47
2022/05/18 07:21:11;;;;;;;3.22;2.92;;;21.60;55.90;;;;;;5095714;28;19939;-49
2022/05/18 07:23:37;;;;;;;3.65;3.28;;;21.50;55.90;;;;;;5093740;28;20059;-48
2022/05/18 07:26:03;;;;;;;3.60;3.25;;;21.60;56.00;;;;;;5094085;28;20036;-47
2022/05/18 07:28:30;;;;;;;4.00;3.60;;;21.60;56.00;;;;;;5094300;28;20040;-49
2022/05/18 07:30:56;;;;;;;3.40;3.10;;;21.60;56.00;;;;;;5092120;28;20098;-49
2022/05/18 07:33:24;;;;;;;3.60;3.30;;;21.60;56.00;;;;;;5098697;28;20480;-47
2022/05/18 07:35:51;;;;;;;3.60;3.30;;;21.60;55.90;;;;;;5093073;28;20034;-48
2022/05/18 07:38:25;;;;;;;4.60;3.35;;;21.60;56.00;;;;;;5093817;28;20567;-48
2022/05/18 07:40:52;;;;;;;3.70;3.40;;;21.60;55.90;;;;;;5095715;28;20704;-51
2022/05/18 07:43:19;;;;;;;3.83;3.53;;;21.60;55.90;;;;;;5092015;28;20020;-47
2022/05/18 07:45:49;;;;;;;3.55;3.20;;;21.60;56.00;;;;;;5092123;28;20040;-46
2022/05/18 07:48:16;;;;;;;3.83;3.47;;;21.50;56.00;;;;;;5095331;28;20028;-48
2022/05/18 07:50:42;;;;;;;3.55;3.25;;;21.50;56.00;;;;;;5093852;28;20040;-48
2022/05/18 07:53:08;;;;;;;4.80;3.33;;;21.50;56.60;;;;;;5094730;28;20027;-46
2022/05/18 07:55:34;;;;;;;5.22;3.40;;;21.50;56.00;;;;;;5092816;28;20043;-47
2022/05/18 07:58:08;;;;;;;3.97;3.58;;;21.50;56.00;;;;;;5095023;28;20028;-47
2022/05/18 08:00:34;;;;;;;3.10;2.88;;;21.50;56.00;;;;;;5102567;28;20076;-49
2022/05/18 08:03:01;;;;;;;4.00;3.70;;;21.50;56.00;;;;;;5096846;28;20035;-49
2022/05/18 08:05:29;;;;;;;3.55;3.25;;;21.50;56.00;;;;;;5093740;28;20038;-48
2022/05/18 08:07:55;;;;;;;7.07;4.00;;;21.50;56.00;;;;;;5095928;28;20041;-49
2022/05/18 08:15:51;;;;;;;4.20;3.65;;;21.50;56.00;;;;;;5095256;28;20717;-49
2022/05/18 08:18:18;;;;;;;4.65;4.25;;;21.50;56.10;;;;;;5098527;28;20028;-47
2022/05/18 08:20:45;;;;;;;4.63;4.22;;;21.50;56.10;;;;;;5103766;28;20783;-48
2022/05/18 08:23:11;;;;;;;4.53;4.23;;;21.40;56.00;;;;;;5093710;28;20583;-50
2022/05/18 08:25:37;;;;;;;4.55;4.15;;;21.40;56.00;;;;;;5089167;28;20069;-52
2022/05/18 08:28:04;;;;;;;4.50;4.10;;;21.40;56.00;;;;;;5089949;28;20052;-48
2022/05/18 08:30:31;;;;;;;5.18;4.68;;;21.40;56.20;;;;;;5093189;28;20084;-48
2022/05/18 08:33:01;;;;;;;5.20;4.70;;;21.40;56.20;;;;;;5073035;28;20131;-47
2022/05/18 08:35:28;;;;;;;5.68;4.88;;;21.40;56.30;;;;;;5099091;28;20059;-48
2022/05/18 08:37:55;;;;;;;4.68;4.28;;;21.40;56.30;;;;;;5092189;28;20028;-47
2022/05/18 08:40:30;;;;;;;5.22;4.82;;;21.40;56.10;;;;;;5096185;28;20051;-48
2022/05/18 08:43:00;;;;;;;4.95;4.50;;;21.40;56.10;;;;;;5089948;28;20024;-48
2022/05/18 08:45:29;;;;;;;5.45;4.97;;;21.40;56.10;;;;;;5073121;28;20036;-49
2022/05/18 08:48:29;;;;;;;5.70;5.07;;;21.40;56.10;;;;;;5076085;28;20027;-48
2022/05/18 08:51:00;;;;;;;4.57;4.28;;;21.40;56.00;;;;;;5091348;28;20123;-46
2022/05/18 08:53:35;;;;;;;4.57;4.28;;;21.30;56.00;;;;;;5079566;28;20100;-48
2022/05/18 08:56:23;;;;;;;4.85;4.38;;;21.30;56.00;;;;;;5097313;28;20035;-48
2022/05/18 08:58:51;;;;;;;5.35;4.85;;;21.30;56.10;;;;;;5076263;28;20053;-47
2022/05/18 09:01:22;;;;;;;5.30;4.80;;;21.30;56.00;;;;;;5092512;28;20147;-47
2022/05/18 09:03:59;;;;;;;5.00;4.60;;;21.30;56.00;;;;;;5096047;28;20743;-48
2022/05/18 09:06:46;;;;;;;5.18;4.78;;;21.30;56.00;;;;;;5055099;28;20052;-48
2022/05/18 09:12:01;;;;;;;;;;;21.30;56.10;;;;;;5065403;28;20048;-49
2022/05/18 09:14:30;;;;;;;4.97;4.47;;;21.30;56.10;;;;;;5094618;28;20367;-47
2022/05/18 09:17:15;;;;;;;5.65;5.18;;;21.30;56.10;;;;;;5091237;28;20671;-48
2022/05/18 09:19:53;;;;;;;5.15;4.75;;;21.30;56.10;;;;;;5080107;28;20036;-47
2022/05/18 09:22:58;;;;;;;5.72;5.13;;;21.20;56.10;;;;;;5075832;28;20119;-48
2022/05/18 09:25:40;;;;;;;5.18;4.68;;;21.20;56.10;;;;;;5087754;28;20039;-49
2022/05/18 09:28:23;;;;;;;5.38;4.88;;;21.30;56.30;;;;;;5087112;28;20036;-47
2022/05/18 09:30:58;;;;;;;5.10;4.70;;;21.20;56.20;;;;;;5074625;28;20052;-49
2022/05/18 09:33:36;;;;;;;5.15;4.75;;;21.20;56.20;;;;;;5093618;28;20028;-46
2022/05/18 09:36:15;;;;;;;5.43;4.93;;;21.20;56.20;;;;;;5087830;28;20059;-47
2022/05/18 09:39:12;;;;;;;5.45;5.00;;;21.20;56.30;;;;;;5074717;28;20032;-48
2022/05/18 09:42:01;;;;;;;5.70;5.30;;;21.20;56.30;;;;;;5084537;28;20067;-49
2022/05/18 09:45:06;;;;;;;5.38;4.97;;;21.20;56.30;;;;;;5073310;28;20050;-46
2022/05/18 09:47:41;;;;;;;5.47;4.97;;;21.20;56.40;;;;;;5092569;28;20027;-48
2022/05/18 09:50:08;;;;;;;5.30;4.90;;;21.20;56.40;;;;;;5094082;28;20040;-50
2022/05/18 09:52:37;;;;;;;5.53;5.03;;;21.20;56.40;;;;;;5090739;28;20070;-48
2022/05/18 09:55:04;;;;;;;5.55;5.15;;;21.20;56.40;;;;;;5073640;28;20148;-48
2022/05/18 09:57:56;;;;;;;5.75;5.28;;;21.10;56.40;;;;;;5090303;28;20054;-48
2022/05/18 10:00:24;;;;;;;5.95;5.45;;;21.10;56.40;;;;;;5100962;28;20030;-44
2022/05/18 10:07:27;;;;;;;5.78;5.28;;;21.10;56.50;;;;;;5097416;28;20062;-47
2022/05/18 10:08:37;;;;;;;5.30;4.90;;;21.10;56.50;;;;;;5091913;28;20037;-46
2022/05/18 10:11:09;;;;;;;6.40;5.80;;;21.10;56.60;;;;;;5078999;28;20122;-45
2022/05/18 10:13:40;;;;;;;6.00;5.50;;;21.10;56.60;;;;;;5089080;28;20024;-47
2022/05/18 10:16:18;;;;;;;5.93;5.45;;;21.10;56.60;;;;;;5058068;28;20023;-47
2022/05/18 10:18:45;;;;;;;5.78;5.32;;;21.10;56.60;;;;;;5075082;28;20012;-47
2022/05/18 10:21:23;;;;;;;11.93;8.48;;;21.10;56.60;;;;;;5074644;28;20035;-53
2022/05/18 10:23:55;;;;;;;149.48;53.55;;;21.10;57.00;;;;;;5092023;28;20032;-57
2022/05/18 10:26:24;;;;;;;41.72;17.85;;;21.10;56.90;;;;;;5101229;28;20028;-51
2022/05/18 10:29:08;;;;;;;69.68;26.25;;;21.10;56.70;;;;;;5097766;28;20035;-56
2022/05/18 10:31:40;;;;;;;137.98;48.33;;;21.10;56.60;;;;;;5094068;28;20563;-48
2022/05/18 10:34:23;;;;;;;123.53;43.60;;;21.00;56.50;;;;;;5094150;28;20024;-46
2022/05/18 10:36:55;;;;;;;114.15;42.00;;;21.10;56.70;;;;;;5098571;28;20430;-52
2022/05/18 10:39:44;;;;;;;74.93;29.42;;;21.00;56.60;;;;;;5094276;28;20048;-52
2022/05/18 10:42:14;;;;;;;122.63;44.60;;;21.00;56.70;;;;;;5087822;28;20123;-53
2022/05/18 10:44:41;;;;;;;76.53;28.73;;;21.00;56.60;;;;;;5097999;28;20029;-54
2022/05/18 10:47:31;;;;;;;96.90;34.20;;;21.00;56.90;;;;;;5093713;28;20031;-56
2022/05/18 10:50:24;;;;;;;86.78;32.20;;;20.90;57.20;;;;;;5070695;28;20154;-57
2022/05/18 10:53:01;;;;;;;94.75;33.67;;;20.90;57.10;;;;;;5096671;28;20046;-57
2022/05/18 10:55:30;;;;;;;98.68;33.75;;;20.90;57.00;;;;;;5109750;28;20455;-56
2022/05/18 10:58:03;;;;;;;90.75;33.45;;;20.90;56.90;;;;;;5097287;28;20040;-56
2022/05/18 11:00:35;;;;;;;84.63;32.78;;;20.90;56.80;;;;;;5094034;28;20020;-56
2022/05/18 11:03:07;;;;;;;88.53;32.63;;;20.90;56.80;;;;;;5082180;28;20028;-57
2022/05/18 11:05:40;;;;;;;84.63;30.40;;;20.90;56.70;;;;;;5102920;28;20032;-56
2022/05/18 11:08:16;;;;;;;84.20;30.90;;;20.80;56.50;;;;;;5081466;28;20077;-56
2022/05/18 11:11:16;;;;;;;82.68;31.33;;;20.80;56.50;;;;;;5106184;28;20048;-59
2022/05/18 11:13:54;;;;;;;74.72;28.90;;;20.80;56.50;;;;;;5087535;28;20103;-56
2022/05/18 11:16:26;;;;;;;;;;;20.80;56.40;;;;;;5080206;28;20073;-57
2022/05/18 11:19:26;;;;;;;72.07;26.50;;;20.80;56.40;;;;;;5096871;28;19908;-54
2022/05/18 11:21:56;;;;;;;69.50;27.27;;;20.70;56.40;;;;;;5061066;28;20044;-57
2022/05/18 11:24:43;;;;;;;68.85;25.90;;;20.70;56.30;;;;;;5095063;28;20024;-56
2022/05/18 11:27:19;;;;;;;69.70;26.75;;;20.70;56.30;;;;;;5091270;28;20024;-54
2022/05/18 11:30:05;;;;;;;72.70;27.02;;;20.70;56.30;;;;;;5089592;28;20048;-58
2022/05/18 11:33:10;;;;;;;68.22;25.70;;;20.70;56.30;;;;;;5075338;28;20036;-58
2022/05/18 11:35:57;;;;;;;63.63;24.88;;;20.70;56.20;;;;;;5031872;28;20026;-56
2022/05/18 11:38:36;;;;;;;62.55;25.27;;;20.60;56.70;;;;;;5028115;28;20041;-57
2022/05/18 11:41:05;;;;;;;61.25;23.30;;;20.60;56.10;;;;;;5009501;28;20057;-58
2022/05/18 11:44:07;;;;;;;59.42;24.75;;;20.60;56.10;;;;;;5028116;28;20097;-56
2022/05/18 11:46:39;;;;;;;55.85;21.90;;;20.60;56.00;;;;;;5032807;28;20057;-58
2022/05/18 11:49:12;;;;;;;54.78;22.80;;;20.60;56.10;;;;;;5032384;28;20034;-56
2022/05/18 11:51:45;;;;;;;62.28;22.30;;;20.50;56.10;;;;;;5029097;28;20034;-58
2022/05/18 11:54:38;;;;;;;51.33;22.65;;;20.50;56.00;;;;;;5028009;28;20045;-57
2022/05/18 11:57:31;;;;;;;51.40;21.85;;;20.50;56.00;;;;;;5034155;28;20132;-56
2022/05/18 12:00:14;;;;;;;59.13;23.00;;;20.40;56.00;;;;;;5035946;28;20041;-58
2022/05/18 12:03:21;;;;;;;61.10;22.67;;;20.50;56.00;;;;;;5028437;28;20047;-58
2022/05/18 12:06:00;;;;;;;50.28;21.85;;;20.40;56.00;;;;;;4951369;28;20046;-59
2022/05/18 12:08:48;;;;;;;51.65;21.08;;;20.40;56.00;;;;;;4984763;28;20034;-59
2022/05/18 12:11:25;;;;;;;49.80;20.23;;;20.40;56.00;;;;;;4981641;28;20039;-59
2022/05/18 12:14:01;;;;;;;49.30;20.85;;;20.40;56.00;;;;;;4979445;28;20041;-58
2022/05/18 12:16:39;;;;;;;45.80;19.77;;;20.30;56.00;;;;;;4980058;28;20703;-60
2022/05/18 12:19:07;;;;;;;;;;;20.40;56.10;;;;;;4990743;28;20086;-59
2022/05/18 12:21:43;;;;;;;41.53;17.73;;;20.30;56.00;;;;;;4981203;28;19949;-59
2022/05/18 12:24:09;;;;;;;43.25;19.17;;;20.30;56.10;;;;;;4986876;28;20033;-59
2022/05/18 12:26:37;;;;;;;44.63;18.05;;;20.30;56.10;;;;;;4986274;28;20029;-60
2022/05/18 12:29:04;;;;;;;45.22;18.85;;;20.30;56.10;;;;;;4992931;28;20120;-59
2022/05/18 12:31:31;;;;;;;45.40;19.30;;;20.30;56.10;;;;;;5005460;28;20049;-59
2022/05/18 12:34:07;;;;;;;40.83;17.80;;;20.30;56.10;;;;;;5005565;28;20054;-60
2022/05/18 12:36:44;;;;;;;44.47;18.52;;;20.30;56.10;;;;;;5004506;28;20677;-59
2022/05/18 12:39:18;;;;;;;43.28;18.60;;;20.20;56.10;;;;;;5002033;28;20049;-59
2022/05/18 12:41:45;;;;;;;41.55;17.52;;;20.30;56.20;;;;;;5066816;28;20090;-60
2022/05/18 12:44:13;;;;;;;37.47;18.65;;;20.20;56.10;;;;;;5086240;28;20706;-60
2022/05/18 12:46:54;;;;;;;35.10;17.23;;;20.20;56.20;;;;;;5069706;28;20087;-60
2022/05/18 12:49:30;;;;;;;42.40;17.98;;;20.20;56.10;;;;;;5083970;28;20135;-59
2022/05/18 12:52:15;;;;;;;41.33;17.00;;;20.20;56.20;;;;;;5050159;28;20029;-59
2022/05/18 12:54:42;;;;;;;38.08;15.98;;;20.20;56.20;;;;;;5084064;28;20024;-60
2022/05/18 12:57:10;;;;;;;39.80;17.27;;;20.20;56.30;;;;;;5066085;28;20308;-60
2022/05/18 13:00:07;;;;;;;38.38;16.08;;;20.20;56.20;;;;;;5099345;28;20067;-60
2022/05/18 13:02:37;;;;;;;34.35;16.15;;;20.10;56.20;;;;;;5105731;28;20052;-60
2022/05/18 13:05:31;;;;;;;35.38;16.00;;;20.10;56.20;;;;;;5104773;28;20048;-60
2022/05/18 13:08:06;;;;;;;34.80;16.10;;;20.10;56.10;;;;;;5092834;28;20028;-57
2022/05/18 13:10:36;;;;;;;35.65;15.77;;;20.10;56.20;;;;;;5097041;28;20153;-60
2022/05/18 13:13:07;;;;;;;30.48;15.07;;;20.10;56.20;;;;;;5083666;28;20021;-59
2022/05/18 13:15:52;;;;;;;34.17;15.77;;;20.10;56.30;;;;;;5083464;28;20039;-59
2022/05/18 13:18:19;;;;;;;34.35;15.32;;;20.10;56.30;;;;;;5083756;28;20021;-60